Latest Weather Observations for Mandora

IDW60801

Issued at 7:03 am WST Wednesday 18 January 2017 (issued every 30 minutes, with the page automatically refreshed every 10 minutes)

About weather observations | Map of weather stations | Latest weather observations for WA | Other Formats
Station Details ID: 004019 Name: MANDORA Lat: -19.74 Lon: 120.84 Height: 7.5 m
Data from the previous 72 hours. | See also: Recent months at Mandora
Date/Time
WST
Temp
°C
App
Temp
°C
Dew
Point
°C
Rel
Hum
%
Delta-T
°C
Wind Press
QNH
hPa
Press
MSL
hPa
Rain since
9am
mm
Dir  Spd
km/h
Gust
km/h
Spd
kts
Gust
kts
18/07:00am 28.6 31.0 23.7 75 3.4 SSW 17 20 9 11 1006.9 1006.8 0.0
18/06:30am 27.9 31.4 23.5 77 3.0 SSW 11 17 6 9 1006.9 1006.8 0.0
18/06:00am 27.1 30.8 23.3 80 2.6 SSW 9 13 5 7 1006.7 1006.6 0.0
18/05:30am 27.1 30.3 23.1 79 2.7 SSW 11 15 6 8 1006.4 1006.3 0.0
18/05:00am 27.6 31.0 23.4 78 2.9 SW 11 15 6 8 1005.9 1005.8 0.0
18/04:30am 27.5 31.2 23.3 78 2.9 SW 9 11 5 6 1005.9 1005.8 0.0
18/04:00am 27.8 30.8 22.7 74 3.5 W 11 15 6 8 1005.5 1005.4 0.0
18/03:30am 28.1 30.9 23.0 74 3.5 W 13 17 7 9 1005.5 1005.4 0.0
18/03:00am 28.3 30.6 23.4 75 3.4 W 17 22 9 12 1005.4 1005.3 0.0
18/02:30am 28.4 30.6 23.3 74 3.5 W 17 24 9 13 1005.6 1005.5 0.0
18/02:00am 28.5 30.9 23.6 75 3.4 W 17 24 9 13 1005.6 1005.5 0.0
18/01:30am 28.4 30.7 23.5 75 3.4 WNW 17 24 9 13 1005.7 1005.6 0.0
18/01:00am 28.4 31.3 23.8 76 3.2 W 15 28 8 15 1005.8 1005.7 0.0
18/12:30am 28.3 31.2 23.9 77 3.0 W 15 24 8 13 1005.8 1005.7 0.0
18/12:00am 28.4 31.8 24.0 77 3.0 WNW 13 20 7 11 1005.9 1005.8 0.0
 
Date/Time
WST
Temp
°C
App
Temp
°C
Dew
Point
°C
Rel
Hum
%
Delta-T
°C
Wind Press
QNH
hPa
Press
MSL
hPa
Rain since
9am
mm
Dir  Spd
km/h
Gust
km/h
Spd
kts
Gust
kts
17/11:30pm 28.6 32.1 24.2 77 3.1 WNW 13 20 7 11 1006.4 1006.3 0.0
17/11:00pm 28.6 31.9 23.9 75 3.3 WNW 13 17 7 9 1006.7 1006.6 0.0
17/10:30pm 28.6 32.1 24.2 77 3.1 WNW 13 19 7 10 1006.8 1006.7 0.0
17/10:00pm 28.7 31.7 24.0 76 3.3 WNW 15 20 8 11 1007.0 1006.9 0.0
17/09:30pm 28.7 32.4 24.5 78 2.9 WNW 13 20 7 11 1006.8 1006.7 0.0
17/09:00pm 28.8 32.4 24.4 77 3.1 WNW 13 19 7 10 1006.5 1006.4 0.0
17/08:30pm 29.0 32.1 24.1 75 3.4 WNW 15 22 8 12 1006.3 1006.2 0.0
17/08:00pm 29.2 32.8 24.3 75 3.4 WNW 13 22 7 12 1006.0 1005.9 0.0
17/07:30pm 29.1 32.7 24.4 76 3.3 WNW 13 20 7 11 1005.4 1005.3 0.0
17/07:00pm 29.2 33.0 24.1 74 3.5 WNW 11 19 6 10 1005.3 1005.2 0.0
17/06:30pm 29.6 32.5 24.5 74 3.6 WNW 17 24 9 13 1004.8 1004.7 0.0
17/06:00pm 29.8 33.3 24.9 75 3.4 WNW 15 24 8 13 1004.2 1004.1 0.0
17/05:30pm 30.0 33.3 25.1 75 3.4 WNW 17 28 9 15 1003.7 1003.6 0.0
17/05:00pm 30.0 32.9 25.1 75 3.5 WNW 19 28 10 15 1003.6 1003.5 0.0
17/04:30pm 30.2 33.4 25.0 73 3.7 WNW 17 24 9 13 1003.3 1003.2 0.0
17/04:00pm 30.3 33.1 24.9 73 3.8 WNW 19 26 10 14 1003.3 1003.2 0.0
17/03:30pm 30.7 34.0 25.1 72 3.9 WNW 17 24 9 13 1003.2 1003.1 0.0
17/03:00pm 30.7 34.0 25.1 72 4.0 NW 17 22 9 12 1004.0 1003.9 0.0
17/02:30pm 30.7 33.8 24.8 71 4.1 NW 17 24 9 13 1003.9 1003.8 0.0
17/02:00pm 31.1 34.1 24.7 68 4.5 NW 17 24 9 13 1004.3 1004.2 0.0
17/01:30pm 31.5 34.0 24.4 66 5.0 NW 19 30 10 16 1004.5 1004.4 0.0
17/01:00pm 32.8 35.8 24.6 62 5.8 NW 17 28 9 15 1004.5 1004.4 0.0
17/12:30pm 32.7 35.4 24.2 61 5.9 NW 17 24 9 13 1005.0 1004.9 0.0
17/12:00pm 32.3 35.0 24.1 62 5.7 NNW 17 26 9 14 1005.1 1005.0 0.0
17/11:30am 33.0 36.1 24.2 60 6.2 NW 15 22 8 12 1005.5 1005.4 0.0
17/11:00am 33.5 37.4 24.9 60 6.1 NW 13 22 7 12 1005.8 1005.7 0.0
17/10:30am 33.0 36.8 24.7 61 5.8 NW 13 22 7 12 1005.9 1005.8 0.0
17/10:00am 32.4 35.4 24.7 64 5.4 WNW 17 30 9 16 1006.1 1006.0 0.0
17/09:30am 32.1 35.6 24.2 63 5.5 NW 13 22 7 12 1006.3 1006.2 0.0
17/09:00am 32.2 35.8 24.3 63 5.5 NW 13 20 7 11 1006.0 1005.9 0.0
17/08:30am 31.8 36.3 25.2 68 4.7 NNW 11 15 6 8 1005.9 1005.8 0.0
17/08:00am 31.1 35.8 25.0 70 4.3 WNW 9 13 5 7 1005.7 1005.6 0.0
17/07:30am 30.9 36.2 25.0 71 4.2 W 6 9 3 5 1006.0 1005.9 0.0
17/07:00am 30.2 35.3 25.0 73 3.7 W 7 13 4 7 1006.1 1006.0 0.0
17/06:30am 28.6 35.2 25.2 82 2.4 CALM 0 0 0 0 1005.9 1005.8 0.0
17/06:00am 27.2 32.3 24.7 86 1.7 WSW 6 7 3 4 1005.7 1005.6 0.0
17/05:30am 26.8 31.8 24.5 87 1.6 SW 6 6 3 3 1005.5 1005.4 0.0
17/05:00am 26.9 33.0 24.4 86 1.7 CALM 0 0 0 0 1005.3 1005.2 0.0
17/04:30am 27.1 31.8 24.0 83 2.1 N 6 7 3 4 1004.8 1004.7 0.0
17/04:00am 27.1 31.0 23.6 81 2.4 NW 9 15 5 8 1004.7 1004.6 0.0
17/03:30am 27.3 33.6 24.7 86 1.8 CALM 0 0 0 0 1004.9 1004.8 0.0
17/03:00am 27.5 33.3 24.6 84 2.0 WNW 2 6 1 3 1004.7 1004.6 0.0
17/02:30am 27.7 32.7 24.5 83 2.2 NW 6 7 3 4 1004.8 1004.7 0.0
17/02:00am 27.7 32.6 24.7 84 2.1 NW 7 9 4 5 1004.8 1004.7 0.0
17/01:30am 27.8 32.8 24.8 84 2.1 NW 7 9 4 5 1004.9 1004.8 0.0
17/01:00am 27.7 32.8 24.9 85 2.0 NNW 7 9 4 5 1005.0 1004.9 0.0
17/12:30am 27.8 32.8 24.8 84 2.1 NW 7 9 4 5 1005.3 1005.2 0.0
17/12:00am 27.9 33.0 24.9 84 2.1 NNW 7 9 4 5 1005.7 1005.6 0.0
 
Date/Time
WST
Temp
°C
App
Temp
°C
Dew
Point
°C
Rel
Hum
%
Delta-T
°C
Wind Press
QNH
hPa
Press
MSL
hPa
Rain since
9am
mm
Dir  Spd
km/h
Gust
km/h
Spd
kts
Gust
kts
16/11:30pm 28.1 33.4 24.9 83 2.2 NW 6 9 3 5 1006.0 1005.9 0.0
16/11:00pm 28.1 33.4 24.9 83 2.2 NW 6 7 3 4 1006.2 1006.1 0.0
16/10:30pm 28.1 33.2 24.9 83 2.2 NW 7 9 4 5 1006.5 1006.4 0.0
16/10:00pm 28.3 33.2 24.7 81 2.5 NW 7 9 4 5 1006.6 1006.5 0.0
16/09:30pm 28.5 33.1 24.7 80 2.7 NW 9 13 5 7 1006.2 1006.1 0.0
16/09:00pm 28.7 33.1 24.5 78 2.9 NW 9 13 5 7 1005.9 1005.8 0.0
16/08:30pm 28.9 33.3 24.5 77 3.1 NW 9 15 5 8 1006.1 1006.0 0.0
16/08:00pm 29.2 32.9 24.5 76 3.3 NNW 13 20 7 11 1006.0 1005.9 0.0
16/07:30pm 29.2 32.9 24.5 76 3.3 NNW 13 17 7 9 1005.8 1005.7 0.0
16/07:00pm 29.4 33.2 24.7 76 3.3 NNW 13 20 7 11 1005.3 1005.2 0.0
16/06:30pm 29.9 32.6 24.1 71 4.0 NW 17 24 9 13 1005.3 1005.2 0.0
16/06:00pm 30.5 33.6 24.2 69 4.4 NNW 15 24 8 13 1005.0 1004.9 0.0
16/05:30pm 30.7 33.7 24.6 70 4.3 NW 17 24 9 13 1004.6 1004.5 0.0
16/05:00pm 31.0 33.7 24.1 66 4.8 NW 17 26 9 14 1004.4 1004.3 0.0
16/04:30pm 31.0 32.7 24.1 66 4.8 NW 22 32 12 17 1004.2 1004.1 0.0
16/04:00pm 31.8 34.1 24.4 65 5.2 NW 20 30 11 16 1004.2 1004.1 0.0
16/03:30pm 31.8 34.1 24.1 63 5.4 NNW 19 32 10 17 1004.4 1004.3 0.0
16/03:00pm 32.3 34.9 24.6 64 5.4 NW 19 32 10 17 1004.6 1004.5 0.0
16/02:30pm 32.4 34.7 24.4 62 5.6 NNW 20 30 11 16 1004.8 1004.7 0.0
16/02:00pm 33.2 35.1 23.8 57 6.6 NW 20 33 11 18 1005.4 1005.3 0.0
16/01:30pm 32.8 34.5 24.0 60 6.1 NW 22 35 12 19 1005.6 1005.5 0.0
16/01:00pm 32.0 34.3 24.1 63 5.5 NNW 19 28 10 15 1005.7 1005.6 0.0
16/12:30pm 32.9 35.2 24.1 60 6.2 NW 19 30 10 16 1005.9 1005.8 0.0
16/12:00pm 32.6 35.1 24.4 62 5.8 NNW 19 30 10 16 1006.2 1006.1 0.0
16/11:30am 32.4 34.8 24.2 62 5.7 NW 19 32 10 17 1006.5 1006.4 0.0
16/11:00am 31.4 33.3 23.8 64 5.3 NNW 20 28 11 15 1006.8 1006.7 0.0
16/10:30am 32.1 35.1 24.7 65 5.2 NNW 17 26 9 14 1007.1 1007.0 0.0
16/10:00am 31.5 35.2 24.6 67 4.8 NNW 13 24 7 13 1007.3 1007.2 0.0
16/09:30am 31.9 35.6 24.5 65 5.2 NNW 13 24 7 13 1007.3 1007.2 0.0
16/09:00am 31.3 34.5 24.4 66 4.8 NNW 15 24 8 13 1007.4 1007.3 0.0
16/08:30am 30.4 33.5 24.1 69 4.4 NW 15 22 8 12 1007.3 1007.2 0.0
16/08:00am 30.6 34.6 25.0 72 3.9 NW 13 20 7 11 1007.2 1007.1 0.0
16/07:30am 29.4 34.3 24.7 76 3.3 WNW 7 13 4 7 1007.1 1007.0 0.0
16/07:00am 29.6 33.3 24.5 74 3.6 NW 13 17 7 9 1007.1 1007.0 0.0
16/06:30am 27.7 34.0 24.7 84 2.1 CALM 0 6 0 3 1006.9 1006.8 0.0
16/06:00am 27.4 33.0 24.8 86 1.8 NW 4 7 2 4 1006.7 1006.6 0.0
16/05:30am 27.0 31.8 24.5 86 1.7 NW 7 9 4 5 1006.3 1006.2 0.0
16/05:00am 27.1 32.6 24.6 86 1.7 NNW 4 9 2 5 1006.0 1005.9 0.0
16/04:30am 27.2 32.2 24.5 85 1.9 NNW 6 7 3 4 1005.7 1005.6 0.0
16/04:00am 27.3 32.2 24.4 84 2.0 NW 6 9 3 5 1005.5 1005.4 0.0
16/03:30am 27.7 32.4 24.3 82 2.4 NW 7 9 4 5 1005.3 1005.2 0.0
16/03:00am 27.8 32.1 24.2 81 2.5 NW 9 13 5 7 1005.6 1005.5 0.0
16/02:30am 27.9 32.0 24.5 82 2.4 NW 11 15 6 8 1005.8 1005.7 0.0
16/02:00am 27.8 32.2 24.4 82 2.4 NW 9 13 5 7 1006.0 1005.9 0.0
16/01:30am 28.2 32.4 24.8 82 2.4 NNW 11 15 6 8 1006.1 1006.0 0.0
16/01:00am 28.2 32.2 24.4 80 2.6 NNW 11 15 6 8 1006.2 1006.1 0.0
16/12:30am 27.9 32.5 24.7 83 2.2 NNW 9 13 5 7 1006.4 1006.3 0.0
16/12:00am 28.1 32.5 24.5 81 2.5 NNW 9 11 5 6 1006.4 1006.3 0.0
 
Date/Time
WST
Temp
°C
App
Temp
°C
Dew
Point
°C
Rel
Hum
%
Delta-T
°C
Wind Press
QNH
hPa
Press
MSL
hPa
Rain since
9am
mm
Dir  Spd
km/h
Gust
km/h
Spd
kts
Gust
kts
15/11:30pm 28.3 33.0 24.9 82 2.4 NNW 9 13 5 7 1006.6 1006.5 0.0
15/11:00pm 28.3 32.1 24.1 78 2.9 NNW 11 13 6 7 1007.2 1007.1 0.0
15/10:30pm 28.4 32.4 24.4 79 2.8 NNW 11 13 6 7 1007.5 1007.4 0.0
15/10:00pm 28.4 33.4 24.8 81 2.5 N 7 11 4 6 1007.6 1007.5 0.0
15/09:30pm 28.5 33.1 24.7 80 2.7 NNW 9 13 5 7 1007.6 1007.5 0.0
15/09:00pm 28.7 33.1 24.5 78 2.9 NNW 9 13 5 7 1007.7 1007.6 0.0
15/08:30pm 28.8 33.2 24.4 77 3.1 NNW 9 13 5 7 1007.4 1007.3 0.0
15/08:00pm 28.9 33.3 24.5 77 3.1 NNW 9 11 5 6 1007.0 1006.9 0.0
15/07:30pm 29.2 32.8 24.3 75 3.4 NNW 13 17 7 9 1006.7 1006.6 0.0
15/07:00pm 29.3 33.0 24.6 76 3.3 NNW 13 17 7 9 1006.3 1006.2 0.0
15/06:30pm 29.8 33.4 24.4 73 3.8 NNW 13 19 7 10 1006.0 1005.9 0.0
15/06:00pm 30.2 32.8 23.9 69 4.4 NNW 17 24 9 13 1005.6 1005.5 0.0
15/05:30pm 30.9 33.2 23.5 64 5.1 NNW 17 26 9 14 1005.2 1005.1 0.0
15/05:00pm 31.3 33.7 23.7 64 5.3 NW 17 26 9 14 1005.1 1005.0 0.0
15/04:30pm 31.5 34.4 23.9 64 5.3 NNW 15 22 8 12 1005.1 1005.0 0.0
15/04:00pm 31.8 33.8 23.6 62 5.7 NNW 19 26 10 14 1005.1 1005.0 0.0
15/03:30pm 32.3 33.8 23.0 58 6.4 NNW 20 26 11 14 1005.1 1005.0 0.0
15/03:00pm 32.4 34.3 23.4 59 6.2 NNW 19 26 10 14 1005.2 1005.1 0.0
15/02:30pm 32.7 34.7 23.6 58 6.3 N 19 26 10 14 1005.7 1005.6 0.0
15/02:00pm 33.0 35.6 23.3 56 6.7 NNW 15 22 8 12 1006.0 1005.9 0.0
15/01:30pm 32.9 34.7 23.2 56 6.7 NNW 19 28 10 15 1006.3 1006.2 0.0
15/01:00pm 32.9 35.4 23.2 56 6.7 NNW 15 20 8 11 1006.3 1006.2 0.0
15/12:30pm 32.3 34.9 23.3 59 6.2 NNW 15 24 8 13 1006.5 1006.4 0.0
15/12:00pm 32.6 35.7 23.5 58 6.3 NNW 13 20 7 11 1006.8 1006.7 0.0
15/11:30am 32.5 35.9 24.0 61 5.9 N 13 22 7 12 1007.0 1006.9 0.0
15/11:00am 31.8 34.9 23.6 62 5.7 N 13 20 7 11 1007.1 1007.0 0.0
15/10:30am 31.7 34.7 22.7 59 6.2 NNW 11 17 6 9 1007.2 1007.1 0.0
15/10:00am 31.5 34.0 22.5 59 6.2 NNW 13 22 7 12 1007.6 1007.5 0.0
15/09:30am 31.7 35.1 22.7 59 6.2 NW 9 13 5 7 1007.7 1007.6 0.0
15/09:00am 31.1 35.2 23.2 63 5.4 WNW 7 13 4 7 1007.6 1007.5 0.0
15/08:30am 30.6 34.3 23.3 65 5.0 WNW 9 13 5 7 1007.9 1007.8 0.0
15/08:00am 30.1 33.9 23.5 67 4.6 NW 9 13 5 7 1007.9 1007.8 0.0
15/07:30am 29.5 34.0 23.9 72 3.9 WNW 7 9 4 5 1007.9 1007.8 0.0

Other Formats:

Comma delimited format used in spreadsheet applications
http://www.bom.gov.au/fwo/IDW60801/IDW60801.94200.axf

JavaScript Object Notation format (JSON) in row-major order
http://www.bom.gov.au/fwo/IDW60801/IDW60801.94200.json